createdAt,value
2023-05-13T00:02:27.504Z,99168.61
2023-05-13T00:07:29.214Z,99165.39
2023-05-13T00:12:31.231Z,99167.74
2023-05-13T00:17:32.928Z,99174.47
2023-05-13T00:22:34.668Z,99170.42
2023-05-13T00:27:36.402Z,99170.73
2023-05-13T00:32:38.063Z,99169.45
2023-05-13T00:37:39.835Z,99175.38
2023-05-13T00:42:41.639Z,99176.77
2023-05-13T00:47:44.108Z,99180.29
2023-05-13T00:52:47.819Z,99176.19
2023-05-13T00:57:49.650Z,99180.65
2023-05-13T01:03:09.923Z,99180.24
2023-05-13T01:08:27.014Z,99180.10
2023-05-13T01:13:33.179Z,99185.50
2023-05-13T01:18:38.111Z,99189.64
2023-05-13T01:23:39.891Z,99191.86
2023-05-13T01:28:41.929Z,99195.25
2023-05-13T01:33:44.476Z,99194.20
2023-05-13T01:38:48.669Z,99192.77
2023-05-13T01:43:50.944Z,99192.08
2023-05-13T01:48:52.683Z,99197.63
2023-05-13T01:53:55.276Z,99196.14
2023-05-13T01:58:58.126Z,99191.64
2023-05-13T02:04:00.279Z,99197.35
2023-05-13T02:09:02.153Z,99195.45
2023-05-13T02:14:04.247Z,99197.16
2023-05-13T02:19:06.973Z,99200.15
2023-05-13T02:24:09.160Z,99201.08
2023-05-13T02:29:11.029Z,99199.48
2023-05-13T02:34:12.882Z,99196.95
2023-05-13T02:39:14.594Z,99193.79
2023-05-13T02:44:16.604Z,99191.52
2023-05-13T02:49:19.367Z,99202.13
2023-05-13T02:54:21.328Z,99200.74
2023-05-13T02:59:23.856Z,99205.09
2023-05-13T03:04:25.723Z,99208.50
2023-05-13T03:09:27.386Z,99206.77
2023-05-13T03:14:29.186Z,99212.71
2023-05-13T03:19:31.818Z,99216.15
2023-05-13T03:24:34.036Z,99210.86
2023-05-13T03:29:36.819Z,99214.57
2023-05-13T03:34:38.997Z,99218.99
2023-05-13T03:39:40.799Z,99226.61
2023-05-13T03:44:42.458Z,99229.35
2023-05-13T03:49:48.040Z,99232.35
2023-05-13T03:54:49.764Z,99237.27
2023-05-13T03:59:51.568Z,99240.20
2023-05-13T04:07:12.610Z,99247.42
2023-05-13T04:12:15.750Z,99251.39
2023-05-13T04:17:17.578Z,99252.41
2023-05-13T04:22:19.523Z,99256.52
2023-05-13T04:27:21.162Z,99259.07
2023-05-13T04:32:23.083Z,99270.36
2023-05-13T04:37:27.463Z,99276.20
2023-05-13T04:42:32.744Z,99278.57
2023-05-13T04:47:37.993Z,99285.36
2023-05-13T04:52:42.849Z,99289.63
2023-05-13T04:57:45.671Z,99290.17
2023-05-13T05:02:47.528Z,99287.94
2023-05-13T05:07:49.388Z,99289.63
2023-05-13T05:12:51.944Z,99292.30
2023-05-13T05:17:54.000Z,99293.75
2023-05-13T05:22:55.896Z,99303.30
2023-05-13T05:27:59.869Z,99304.61
2023-05-13T05:33:02.500Z,99302.42
2023-05-13T05:38:05.225Z,99305.36
2023-05-13T05:43:08.084Z,99307.84
2023-05-13T05:48:10.637Z,99305.59
2023-05-13T05:53:12.680Z,99303.24
2023-05-13T05:58:16.369Z,99308.29
2023-05-13T06:03:18.839Z,99305.71
2023-05-13T06:08:20.831Z,99306.69
2023-05-13T06:13:22.878Z,99302.95
2023-05-13T06:18:26.191Z,99309.38
2023-05-13T06:23:28.954Z,99316.67
2023-05-13T06:28:30.798Z,99318.38
2023-05-13T06:33:32.579Z,99320.23
2023-05-13T06:38:34.868Z,99317.96
2023-05-13T06:43:38.771Z,99316.67
2023-05-13T06:49:02.962Z,99312.44
2023-05-13T06:54:04.915Z,99312.84
2023-05-13T06:59:06.619Z,99312.05
2023-05-13T07:04:08.352Z,99307.48
2023-05-13T07:09:10.116Z,99303.67
2023-05-13T07:14:11.791Z,99297.45
2023-05-13T07:19:13.529Z,99289.08
2023-05-13T07:24:15.334Z,99289.39
2023-05-13T07:29:16.949Z,99288.78
2023-05-13T07:34:19.049Z,99284.60
2023-05-13T07:39:20.718Z,99281.41
2023-05-13T07:44:22.412Z,99277.55
2023-05-13T07:49:24.070Z,99274.55
2023-05-13T07:54:25.786Z,99267.92
2023-05-13T07:59:27.706Z,99266.59
2023-05-13T08:04:29.451Z,99264.79
2023-05-13T08:09:31.147Z,99265.75
2023-05-13T08:14:32.851Z,99265.64
2023-05-13T08:19:36.248Z,99263.51
2023-05-13T08:24:40.514Z,99261.02
2023-05-13T08:29:42.148Z,99262.61
2023-05-13T08:34:43.908Z,99264.63
2023-05-13T08:39:45.947Z,99269.16
2023-05-13T08:44:49.116Z,99272.86
2023-05-13T08:49:52.183Z,99272.73
2023-05-13T08:54:54.525Z,99266.05
2023-05-13T08:59:56.206Z,99263.59
2023-05-13T09:05:02.820Z,99270.58
2023-05-13T09:10:06.185Z,99275.66
2023-05-13T09:15:12.887Z,99278.63
2023-05-13T09:20:17.280Z,99280.11
2023-05-13T09:25:21.689Z,99272.63
2023-05-13T09:30:28.227Z,99264.82
2023-05-13T09:35:31.562Z,99260.23
2023-05-13T09:40:33.273Z,99251.77
2023-05-13T09:45:36.019Z,99253.46
2023-05-13T09:50:48.334Z,99257.09
2023-05-13T09:55:56.315Z,99255.88
2023-05-13T10:00:58.594Z,99251.71
2023-05-13T10:06:03.394Z,99246.55
2023-05-13T10:11:07.048Z,99250.73
2023-05-13T10:16:09.482Z,99251.09
2023-05-13T10:21:12.748Z,99245.96
2023-05-13T10:26:14.737Z,99241.99
2023-05-13T10:31:17.653Z,99242.77
2023-05-13T10:36:28.152Z,99241.67
2023-05-13T10:42:14.856Z,99240.89
2023-05-13T10:47:17.021Z,99241.75
2023-05-13T10:52:19.457Z,99244.55
2023-05-13T10:57:29.453Z,99241.40
2023-05-13T11:02:31.815Z,99241.86
2023-05-13T11:07:38.237Z,99245.94
2023-05-13T11:12:39.963Z,99249.46
2023-05-13T11:17:45.874Z,99241.98
2023-05-13T11:22:47.621Z,99245.90
2023-05-13T11:27:49.293Z,99252.53
2023-05-13T11:32:51.517Z,99250.65
2023-05-13T11:37:59.875Z,99246.70
2023-05-13T11:43:02.308Z,99238.89
2023-05-13T11:48:23.987Z,99245.67
2023-05-13T11:53:25.718Z,99237.89
2023-05-13T11:58:27.512Z,99235.20
2023-05-13T12:03:29.194Z,99241.50
2023-05-13T12:08:31.688Z,99243.20
2023-05-13T12:13:33.504Z,99251.58
2023-05-13T12:18:35.427Z,99253.88
2023-05-13T12:23:43.222Z,99250.33
2023-05-13T12:28:44.911Z,99255.14
2023-05-13T12:33:49.308Z,99249.27
2023-05-13T12:39:10.923Z,99251.97
2023-05-13T12:44:16.167Z,99251.66
2023-05-13T12:49:18.001Z,99251.11
2023-05-13T12:54:19.694Z,99249.40
2023-05-13T12:59:21.369Z,99253.54
2023-05-13T13:04:23.359Z,99255.14
2023-05-13T13:09:25.101Z,99253.56
2023-05-13T13:14:26.874Z,99249.92
2023-05-13T13:19:28.754Z,99249.41
2023-05-13T13:24:30.550Z,99245.90
2023-05-13T13:29:32.387Z,99241.21
2023-05-13T13:34:34.088Z,99242.20
2023-05-13T13:39:36.133Z,99246.23
2023-05-13T13:44:39.427Z,99242.00
2023-05-13T13:49:41.188Z,99238.63
2023-05-13T13:54:42.924Z,99237.20
2023-05-13T13:59:44.567Z,99238.41
2023-05-13T14:04:46.468Z,99230.80
2023-05-13T14:09:49.851Z,99233.15
2023-05-13T14:14:51.502Z,99230.46
2023-05-13T14:19:55.474Z,99235.89
2023-05-13T14:24:58.702Z,99234.63
2023-05-13T14:30:00.415Z,99239.08
2023-05-13T14:35:02.184Z,99235.42
2023-05-13T14:40:04.858Z,99237.16
2023-05-13T14:45:07.197Z,99232.96
2023-05-13T14:50:09.091Z,99236.17
2023-05-13T14:55:11.059Z,99237.14
2023-05-13T15:00:13.280Z,99236.25
2023-05-13T15:05:15.043Z,99238.01
2023-05-13T15:10:16.859Z,99239.56
2023-05-13T15:15:18.760Z,99234.80
2023-05-13T15:20:20.662Z,99235.09
2023-05-13T15:25:22.594Z,99235.45
2023-05-13T15:30:24.513Z,99240.70
2023-05-13T15:35:26.486Z,99241.27
2023-05-13T15:40:28.173Z,99239.38
2023-05-13T15:45:30.064Z,99237.55
2023-05-13T15:50:31.943Z,99233.59
2023-05-13T15:55:34.093Z,99228.52
2023-05-13T16:00:35.850Z,99227.83
2023-05-13T16:05:38.644Z,99229.21
2023-05-13T16:10:40.330Z,99224.67
2023-05-13T16:15:42.052Z,99226.85
2023-05-13T16:20:44.316Z,99225.09
2023-05-13T16:25:55.756Z,99223.80
2023-05-13T16:30:58.645Z,99219.55
2023-05-13T16:36:00.650Z,99218.05
2023-05-13T16:41:02.451Z,99212.45
2023-05-13T16:46:04.262Z,99212.40
2023-05-13T16:51:06.349Z,99207.48
2023-05-13T16:56:08.211Z,99209.02
2023-05-13T17:01:10.027Z,99207.56
2023-05-13T17:06:12.572Z,99209.77
2023-05-13T17:11:17.602Z,99214.08
2023-05-13T17:16:19.352Z,99219.06
2023-05-13T17:21:21.220Z,99214.67
2023-05-13T17:26:22.914Z,99217.94
2023-05-13T17:31:25.796Z,99219.45
2023-05-13T17:36:27.740Z,99219.02
2023-05-13T17:41:29.429Z,99220.86
2023-05-13T17:46:31.104Z,99220.44
2023-05-13T17:51:32.770Z,99223.98
2023-05-13T17:56:34.418Z,99227.17
2023-05-13T18:01:36.269Z,99231.69
2023-05-13T18:06:38.007Z,99237.56
2023-05-13T18:11:39.788Z,99238.23
2023-05-13T18:16:41.569Z,99238.11
2023-05-13T18:21:43.523Z,99247.66
2023-05-13T18:26:45.156Z,99249.41
2023-05-13T18:31:46.816Z,99258.56
2023-05-13T18:36:51.933Z,99268.71
2023-05-13T18:41:53.794Z,99273.48
2023-05-13T18:46:55.443Z,99270.54
2023-05-13T18:51:57.172Z,99274.98
2023-05-13T18:56:59.014Z,99275.77
2023-05-13T19:02:01.153Z,99276.52
2023-05-13T19:07:03.051Z,99281.56
2023-05-13T19:12:05.488Z,99279.41
2023-05-13T19:17:07.309Z,99281.44
2023-05-13T19:22:09.013Z,99281.34
2023-05-13T19:27:11.187Z,99283.70
2023-05-13T19:32:12.924Z,99291.64
2023-05-13T19:37:14.665Z,99298.91
2023-05-13T19:42:16.530Z,99305.02
2023-05-13T19:47:18.284Z,99306.54
2023-05-13T19:52:20.013Z,99303.95
2023-05-13T19:57:21.879Z,99302.30
2023-05-13T20:02:24.893Z,99294.36
2023-05-13T20:07:26.769Z,99290.65
2023-05-13T20:12:28.514Z,99290.33
2023-05-13T20:17:30.369Z,99290.13
2023-05-13T20:22:32.307Z,99285.70
2023-05-13T20:27:34.816Z,99281.83
2023-05-13T20:32:36.712Z,99278.61
2023-05-13T20:37:38.400Z,99282.05
2023-05-13T20:42:40.158Z,99279.64
2023-05-13T20:47:41.833Z,99279.11
2023-05-13T20:52:43.472Z,99274.92
2023-05-13T20:57:46.722Z,99277.70
2023-05-13T21:02:50.286Z,99278.65
2023-05-13T21:07:52.590Z,99277.83
2023-05-13T21:12:57.751Z,99273.34
2023-05-13T21:17:59.462Z,99275.30
2023-05-13T21:23:01.416Z,99278.48
2023-05-13T21:28:03.951Z,99282.09
2023-05-13T21:33:07.819Z,99286.74
2023-05-13T21:38:11.985Z,99282.69
2023-05-13T21:43:15.384Z,99280.80
2023-05-13T21:48:37.130Z,99277.23
2023-05-13T21:53:38.826Z,99278.81
2023-05-13T21:58:40.714Z,99274.56
2023-05-13T22:03:42.376Z,99270.90
2023-05-13T22:08:44.257Z,99265.89
2023-05-13T22:13:46.505Z,99267.44
2023-05-13T22:18:50.119Z,99267.86
2023-05-13T22:23:53.822Z,99266.07
2023-05-13T22:28:55.752Z,99266.27
2023-05-13T22:33:57.443Z,99258.36
2023-05-13T22:38:59.118Z,99258.27
2023-05-13T22:44:00.831Z,99257.62
2023-05-13T22:49:02.645Z,99263.44
2023-05-13T22:54:04.336Z,99262.17
2023-05-13T22:59:06.313Z,99266.43
2023-05-13T23:04:08.056Z,99267.89
2023-05-13T23:09:10.298Z,99262.64
2023-05-13T23:14:18.189Z,99258.63
2023-05-13T23:19:19.862Z,99253.15
2023-05-13T23:24:21.612Z,99249.92
2023-05-13T23:29:27.469Z,99245.84
2023-05-13T23:34:29.175Z,99238.36
2023-05-13T23:39:33.854Z,99234.95
2023-05-13T23:44:35.587Z,99235.58
2023-05-13T23:50:03.219Z,99235.83
2023-05-13T23:55:05.760Z,99231.02
